createdAt,value
2019-03-12T00:00:08.685Z,3.60
2019-03-12T00:00:43.745Z,4.30
2019-03-12T00:01:19.044Z,5.10
2019-03-12T00:01:54.143Z,4.10
2019-03-12T00:02:29.554Z,4.60
2019-03-12T00:03:04.742Z,3.70
2019-03-12T00:03:40.269Z,3.40
2019-03-12T00:04:15.549Z,3.50
2019-03-12T00:04:51.067Z,3.50
2019-03-12T00:05:26.398Z,3.00
2019-03-12T00:06:01.584Z,3.40
2019-03-12T00:06:36.714Z,3.30
2019-03-12T00:07:12.103Z,2.80
2019-03-12T00:07:47.509Z,3.20
2019-03-12T00:08:22.704Z,3.20
2019-03-12T00:08:58.208Z,2.70
2019-03-12T00:09:33.397Z,2.70
2019-03-12T00:10:08.734Z,3.30
2019-03-12T00:10:43.838Z,4.50
2019-03-12T00:11:19.420Z,4.30
2019-03-12T00:11:55.036Z,3.60
2019-03-12T00:12:30.326Z,3.30
2019-03-12T00:13:05.545Z,3.60
2019-03-12T00:13:40.832Z,3.70
2019-03-12T00:14:16.151Z,3.40
2019-03-12T00:14:51.772Z,3.50
2019-03-12T00:15:27.071Z,3.80
2019-03-12T00:16:02.387Z,3.90
2019-03-12T00:16:37.880Z,3.50
2019-03-12T00:17:13.412Z,3.70
2019-03-12T00:17:48.894Z,3.20
2019-03-12T00:18:24.402Z,3.80
2019-03-12T00:18:59.860Z,3.60
2019-03-12T00:19:35.019Z,3.20
2019-03-12T00:20:10.449Z,3.60
2019-03-12T00:20:45.726Z,3.10
2019-03-12T00:21:21.140Z,3.00
2019-03-12T00:21:56.533Z,3.20
2019-03-12T00:22:32.147Z,3.90
2019-03-12T00:23:07.757Z,3.80
2019-03-12T00:23:43.131Z,3.90
2019-03-12T00:24:18.269Z,4.20
2019-03-12T00:24:53.974Z,4.20
2019-03-12T00:25:29.571Z,3.70
2019-03-12T00:26:04.880Z,3.60
2019-03-12T00:26:40.483Z,3.80
2019-03-12T00:27:15.991Z,3.90
2019-03-12T00:27:51.183Z,3.50
2019-03-12T00:28:26.706Z,3.70
2019-03-12T00:29:01.983Z,3.30
2019-03-12T00:29:36.992Z,2.90
2019-03-12T00:30:12.354Z,3.00
2019-03-12T00:30:47.531Z,3.60
2019-03-12T00:31:22.844Z,3.90
2019-03-12T00:31:58.143Z,4.50
2019-03-12T00:32:33.450Z,4.30
2019-03-12T00:33:08.624Z,4.60
2019-03-12T00:33:43.723Z,4.10
2019-03-12T00:34:19.006Z,3.40
2019-03-12T00:34:54.320Z,3.20
2019-03-12T00:35:29.933Z,3.50
2019-03-12T00:36:05.541Z,3.60
2019-03-12T00:36:40.849Z,3.60
2019-03-12T00:37:16.229Z,3.50
2019-03-12T00:37:51.335Z,4.20
2019-03-12T00:38:26.615Z,4.20
2019-03-12T00:39:02.020Z,4.10
2019-03-12T00:39:37.400Z,4.40
2019-03-12T00:40:12.769Z,4.10
2019-03-12T00:40:48.385Z,3.80
2019-03-12T00:41:23.893Z,3.80
2019-03-12T00:41:59.109Z,4.30
2019-03-12T00:42:34.687Z,4.00
2019-03-12T00:43:09.785Z,4.00
2019-03-12T00:43:44.956Z,4.00
2019-03-12T00:44:20.103Z,4.10
2019-03-12T00:44:55.439Z,3.70
2019-03-12T00:45:31.037Z,3.90
2019-03-12T00:46:06.342Z,4.20
2019-03-12T00:46:41.722Z,3.70
2019-03-12T00:47:17.133Z,3.40
2019-03-12T00:47:52.335Z,3.90
2019-03-12T00:48:27.529Z,4.20
2019-03-12T00:49:03.149Z,4.40
2019-03-12T00:49:38.414Z,4.40
2019-03-12T00:50:13.742Z,4.10
2019-03-12T00:50:49.437Z,4.00
2019-03-12T00:51:24.649Z,3.60
2019-03-12T00:51:59.955Z,3.60
2019-03-12T00:52:35.359Z,3.70
2019-03-12T00:53:10.642Z,4.00
2019-03-12T00:53:46.144Z,4.20
2019-03-12T00:54:21.857Z,4.10
2019-03-12T00:54:57.081Z,4.30
2019-03-12T00:55:32.112Z,4.60
2019-03-12T00:56:07.674Z,4.80
2019-03-12T00:56:42.872Z,4.40
2019-03-12T00:57:18.254Z,4.20
2019-03-12T00:57:53.769Z,4.30
2019-03-12T00:58:29.272Z,4.50
2019-03-12T00:59:04.698Z,5.10
2019-03-12T00:59:40.222Z,3.90
2019-03-12T01:00:15.630Z,4.30
2019-03-12T01:00:50.959Z,4.20
2019-03-12T01:01:26.081Z,4.20
2019-03-12T01:02:01.589Z,4.60
2019-03-12T01:02:36.901Z,3.90
2019-03-12T01:03:12.078Z,4.00
2019-03-12T01:03:47.408Z,4.40
2019-03-12T01:04:22.894Z,4.50
2019-03-12T01:04:58.136Z,4.20
2019-03-12T01:05:33.517Z,4.00
2019-03-12T01:06:08.723Z,3.90
2019-03-12T01:06:44.237Z,4.10
2019-03-12T01:07:19.623Z,3.90
2019-03-12T01:07:55.438Z,4.30
2019-03-12T01:08:30.842Z,4.00
2019-03-12T01:09:06.150Z,3.90
2019-03-12T01:09:41.418Z,4.10
2019-03-12T01:10:16.736Z,3.70
2019-03-12T01:10:52.282Z,3.90
2019-03-12T01:11:27.480Z,4.40
2019-03-12T01:12:03.216Z,4.10
2019-03-12T01:12:38.490Z,3.90
2019-03-12T01:13:13.794Z,4.30
2019-03-12T01:13:49.117Z,4.40
2019-03-12T01:14:24.407Z,3.90
2019-03-12T01:14:59.802Z,3.60
2019-03-12T01:15:35.195Z,4.00
2019-03-12T01:16:10.712Z,3.70
2019-03-12T01:16:46.328Z,4.10
2019-03-12T01:17:21.734Z,4.20
2019-03-12T01:17:57.068Z,4.20
2019-03-12T01:18:32.751Z,4.20
2019-03-12T01:19:08.400Z,4.40
2019-03-12T01:19:43.728Z,4.10
2019-03-12T01:20:19.134Z,4.00
2019-03-12T01:20:54.311Z,3.90
2019-03-12T01:21:29.828Z,4.60
2019-03-12T01:22:05.148Z,5.10
2019-03-12T01:22:40.721Z,3.90
2019-03-12T01:23:15.940Z,4.40
2019-03-12T01:23:51.239Z,4.30
2019-03-12T01:24:26.764Z,3.90
2019-03-12T01:25:02.387Z,4.60
2019-03-12T01:25:37.840Z,4.80
2019-03-12T01:26:13.213Z,4.00
2019-03-12T01:26:48.708Z,4.70
2019-03-12T01:27:24.335Z,4.50
2019-03-12T01:27:59.519Z,4.40
2019-03-12T01:28:34.825Z,5.30
2019-03-12T01:29:10.062Z,4.90
2019-03-12T01:29:45.567Z,4.40
2019-03-12T01:30:20.887Z,4.40
2019-03-12T01:30:56.073Z,4.30
2019-03-12T01:31:31.274Z,5.30
2019-03-12T01:32:06.688Z,4.50
2019-03-12T01:32:41.798Z,4.10
2019-03-12T01:33:17.216Z,4.00
2019-03-12T01:33:52.697Z,4.10
2019-03-12T01:34:28.207Z,3.70
2019-03-12T01:35:03.524Z,4.00
2019-03-12T01:35:38.932Z,4.70
2019-03-12T01:36:14.321Z,4.50
2019-03-12T01:36:49.725Z,5.00
2019-03-12T01:37:25.355Z,4.30
2019-03-12T01:38:01.234Z,4.20
2019-03-12T01:38:36.650Z,4.60
2019-03-12T01:39:11.933Z,4.90
2019-03-12T01:39:47.753Z,4.50
2019-03-12T01:40:23.236Z,4.10
2019-03-12T01:40:58.330Z,4.50
2019-03-12T01:41:33.549Z,4.70
2019-03-12T01:42:08.848Z,4.40
2019-03-12T01:42:44.070Z,4.30
2019-03-12T01:43:19.353Z,4.40
2019-03-12T01:43:55.066Z,4.10
2019-03-12T01:44:30.595Z,5.20
2019-03-12T01:45:05.787Z,5.10
2019-03-12T01:45:41.211Z,4.30
2019-03-12T01:46:16.502Z,4.10
2019-03-12T01:46:51.928Z,4.40
2019-03-12T01:47:27.420Z,4.70
2019-03-12T01:48:02.629Z,4.50
2019-03-12T01:48:37.739Z,4.50
2019-03-12T01:49:13.129Z,5.10
2019-03-12T01:49:48.552Z,5.40
2019-03-12T01:50:23.942Z,4.80
2019-03-12T01:50:59.812Z,4.40
2019-03-12T01:51:34.925Z,4.40
2019-03-12T01:52:10.248Z,4.70
2019-03-12T01:52:45.466Z,4.50
2019-03-12T01:53:20.558Z,4.40
2019-03-12T01:53:56.030Z,5.40
2019-03-12T01:54:31.543Z,5.40
2019-03-12T01:55:07.055Z,4.90
2019-03-12T01:55:42.639Z,5.00
2019-03-12T01:56:17.882Z,5.10
2019-03-12T01:56:53.159Z,4.70
2019-03-12T01:57:28.561Z,4.70
2019-03-12T01:58:03.742Z,4.90
2019-03-12T01:58:38.848Z,5.10
2019-03-12T01:59:14.360Z,5.20
2019-03-12T01:59:49.639Z,5.10
2019-03-12T02:00:25.050Z,5.00
2019-03-12T02:01:00.429Z,6.00
2019-03-12T02:01:35.780Z,5.90
2019-03-12T02:02:10.924Z,5.10
2019-03-12T02:02:46.701Z,5.00
2019-03-12T02:03:22.136Z,4.80
2019-03-12T02:03:57.525Z,4.60
2019-03-12T02:04:32.758Z,5.10
2019-03-12T02:05:08.189Z,5.20
2019-03-12T02:05:43.972Z,4.50
2019-03-12T02:06:19.877Z,5.30
2019-03-12T02:06:57.386Z,5.20
2019-03-12T02:07:30.478Z,4.90
2019-03-12T02:08:05.899Z,4.80
2019-03-12T02:08:41.371Z,4.90
2019-03-12T02:09:16.788Z,5.80
2019-03-12T02:09:52.188Z,6.00
2019-03-12T02:10:27.616Z,5.30
2019-03-12T02:11:03.153Z,5.10
2019-03-12T02:11:38.462Z,4.90
2019-03-12T02:12:13.521Z,4.60
2019-03-12T02:12:49.085Z,4.90
2019-03-12T02:13:24.471Z,5.40
2019-03-12T02:14:00.109Z,4.80
2019-03-12T02:14:35.729Z,4.80
2019-03-12T02:15:11.167Z,5.30
2019-03-12T02:15:46.402Z,5.30
2019-03-12T02:16:21.898Z,5.30
2019-03-12T02:16:56.947Z,5.10
2019-03-12T02:17:32.202Z,5.80
2019-03-12T02:18:07.550Z,5.50
2019-03-12T02:18:42.928Z,5.20
2019-03-12T02:19:18.488Z,4.90
2019-03-12T02:19:53.900Z,5.40
2019-03-12T02:20:29.315Z,5.90
2019-03-12T02:21:04.766Z,5.30
2019-03-12T02:21:40.062Z,5.50
2019-03-12T02:22:15.884Z,6.10
2019-03-12T02:22:51.044Z,5.80
2019-03-12T02:23:28.738Z,5.30
2019-03-12T02:24:01.595Z,4.90
2019-03-12T02:24:36.921Z,5.20
2019-03-12T02:25:12.287Z,5.70
2019-03-12T02:25:47.272Z,5.30
2019-03-12T02:26:22.487Z,5.80
2019-03-12T02:26:57.710Z,6.30
2019-03-12T02:27:32.928Z,6.10
2019-03-12T02:28:08.271Z,5.80
2019-03-12T02:28:43.695Z,5.50
2019-03-12T02:29:19.004Z,5.70
2019-03-12T02:29:54.291Z,5.50
2019-03-12T02:30:29.495Z,5.70
2019-03-12T02:31:04.957Z,6.00
2019-03-12T02:31:40.444Z,5.10
2019-03-12T02:32:15.828Z,5.10
2019-03-12T02:32:51.001Z,5.70
2019-03-12T02:33:26.353Z,5.70
2019-03-12T02:34:01.779Z,5.60
2019-03-12T02:34:37.071Z,5.50
2019-03-12T02:35:12.142Z,6.20
2019-03-12T02:35:53.940Z,5.90
2019-03-12T02:36:29.221Z,5.70
2019-03-12T02:37:04.532Z,6.70
2019-03-12T02:37:39.754Z,6.50
2019-03-12T02:38:15.045Z,7.00
2019-03-12T02:38:50.187Z,6.50
2019-03-12T02:39:25.772Z,7.30
2019-03-12T02:40:01.289Z,6.30
2019-03-12T02:40:36.314Z,6.00
2019-03-12T02:41:11.842Z,6.70
2019-03-12T02:41:47.358Z,6.30
2019-03-12T02:42:22.667Z,5.90
2019-03-12T02:42:58.076Z,5.90
2019-03-12T02:43:33.467Z,6.80
2019-03-12T02:44:08.715Z,6.70
2019-03-12T02:44:44.007Z,6.20
2019-03-12T02:45:19.220Z,6.70
2019-03-12T02:45:54.363Z,6.90
2019-03-12T02:46:29.457Z,6.60
2019-03-12T02:47:04.872Z,6.80
2019-03-12T02:47:40.206Z,7.00
2019-03-12T02:48:15.491Z,6.50
2019-03-12T02:48:51.017Z,7.00
2019-03-12T02:49:26.454Z,7.40
2019-03-12T02:50:01.769Z,6.40
2019-03-12T02:50:37.010Z,6.70
2019-03-12T02:51:12.601Z,7.10
2019-03-12T02:51:47.937Z,7.20
2019-03-12T02:52:23.090Z,6.40
2019-03-12T02:52:58.080Z,6.40
2019-03-12T02:53:33.501Z,7.00
2019-03-12T02:54:09.040Z,7.30
2019-03-12T02:54:44.366Z,7.30
2019-03-12T02:55:19.569Z,7.00
2019-03-12T02:55:54.999Z,7.10
2019-03-12T02:56:30.316Z,8.10
2019-03-12T02:57:05.608Z,7.50
2019-03-12T02:57:40.824Z,7.30
2019-03-12T02:58:16.218Z,7.20
2019-03-12T02:58:51.548Z,8.30
2019-03-12T02:59:27.084Z,9.30
2019-03-12T03:00:02.918Z,8.60
2019-03-12T03:00:38.143Z,7.40
2019-03-12T03:01:13.679Z,8.00
2019-03-12T03:01:49.159Z,8.50
2019-03-12T03:02:24.661Z,8.10
2019-03-12T03:02:59.960Z,8.30
2019-03-12T03:03:35.473Z,8.30
2019-03-12T03:04:10.769Z,8.90
2019-03-12T03:04:45.783Z,8.60
2019-03-12T03:05:21.217Z,7.90
2019-03-12T03:05:56.937Z,8.10
2019-03-12T03:06:32.225Z,8.70
2019-03-12T03:07:07.542Z,8.80
2019-03-12T03:07:42.920Z,8.40
2019-03-12T03:08:18.141Z,8.70
2019-03-12T03:08:53.454Z,8.70
2019-03-12T03:09:28.841Z,8.60
2019-03-12T03:10:04.169Z,9.20
2019-03-12T03:10:39.484Z,9.10
2019-03-12T03:11:14.993Z,9.40
2019-03-12T03:11:51.203Z,9.80
2019-03-12T03:12:25.455Z,9.40
2019-03-12T03:13:01.260Z,8.80
2019-03-12T03:13:36.430Z,8.90
2019-03-12T03:14:11.665Z,9.10
2019-03-12T03:14:46.777Z,8.50
2019-03-12T03:15:22.196Z,8.90
2019-03-12T03:15:57.495Z,9.70
2019-03-12T03:16:32.920Z,10.40
2019-03-12T03:17:08.222Z,9.60
2019-03-12T03:17:43.315Z,10.10
2019-03-12T03:18:18.735Z,9.70
2019-03-12T03:18:54.320Z,10.20
2019-03-12T03:19:29.541Z,10.30
2019-03-12T03:20:05.154Z,11.10
2019-03-12T03:20:40.574Z,11.40
2019-03-12T03:21:16.027Z,11.10
2019-03-12T03:21:51.224Z,10.80
2019-03-12T03:22:26.432Z,10.80
2019-03-12T03:23:01.643Z,10.90
2019-03-12T03:23:37.123Z,11.30
2019-03-12T03:24:12.347Z,11.20
2019-03-12T03:24:47.794Z,11.40
2019-03-12T03:25:23.263Z,12.20
2019-03-12T03:25:58.390Z,11.80
2019-03-12T03:26:33.510Z,11.70
2019-03-12T03:27:08.806Z,11.80
2019-03-12T03:27:44.128Z,12.30
2019-03-12T03:28:19.613Z,11.20
2019-03-12T03:28:55.154Z,12.00
2019-03-12T03:29:30.636Z,12.90
2019-03-12T03:30:05.850Z,12.40
2019-03-12T03:30:41.157Z,12.60
2019-03-12T03:31:17.010Z,12.80
2019-03-12T03:31:51.998Z,13.10
2019-03-12T03:32:27.515Z,13.30
2019-03-12T03:33:02.909Z,13.00
2019-03-12T03:33:37.897Z,12.60
2019-03-12T03:34:13.110Z,12.30
2019-03-12T03:34:48.538Z,12.00
2019-03-12T03:35:23.928Z,12.30
2019-03-12T03:35:59.288Z,13.10
2019-03-12T03:36:34.886Z,12.60
2019-03-12T03:37:10.194Z,13.20
2019-03-12T03:37:45.509Z,12.50
2019-03-12T03:38:20.633Z,12.90
2019-03-12T03:38:55.864Z,13.40
2019-03-12T03:39:31.291Z,14.00
2019-03-12T03:40:06.877Z,13.80
2019-03-12T03:40:42.166Z,12.60
2019-03-12T03:41:18.011Z,13.00
2019-03-12T03:41:52.911Z,13.20
2019-03-12T03:42:28.229Z,13.50
2019-03-12T03:43:03.486Z,14.00
2019-03-12T03:43:38.844Z,14.00
2019-03-12T03:44:14.389Z,13.50
2019-03-12T03:44:49.479Z,13.60
2019-03-12T03:45:25.005Z,13.20
2019-03-12T03:46:00.316Z,13.60
2019-03-12T03:46:36.093Z,14.30
2019-03-12T03:47:11.498Z,14.90
2019-03-12T03:47:46.971Z,14.60
2019-03-12T03:48:22.325Z,14.20
2019-03-12T03:48:57.779Z,14.10
2019-03-12T03:49:33.376Z,13.90
2019-03-12T03:50:08.882Z,13.20
2019-03-12T03:50:44.825Z,13.30
2019-03-12T03:51:20.176Z,13.30
2019-03-12T03:51:55.467Z,13.60
2019-03-12T03:52:30.769Z,14.40
2019-03-12T03:53:06.273Z,13.80
2019-03-12T03:53:41.601Z,14.20
2019-03-12T03:54:16.873Z,14.10
2019-03-12T03:54:52.197Z,14.60
2019-03-12T03:55:27.700Z,14.40
2019-03-12T03:56:03.069Z,14.40
2019-03-12T03:56:38.424Z,13.90
2019-03-12T03:57:13.994Z,14.70
2019-03-12T03:57:49.430Z,14.80
2019-03-12T03:58:24.626Z,15.50
2019-03-12T03:59:00.263Z,15.40
2019-03-12T03:59:35.587Z,15.40
2019-03-12T04:00:10.895Z,15.20
2019-03-12T04:00:46.301Z,15.30
2019-03-12T04:01:21.889Z,15.10
2019-03-12T04:01:57.233Z,15.20
2019-03-12T04:02:32.313Z,16.00
2019-03-12T04:03:07.732Z,15.70
2019-03-12T04:03:43.023Z,14.40
2019-03-12T04:04:18.441Z,14.10
2019-03-12T04:04:54.076Z,14.80
2019-03-12T04:05:29.393Z,14.90
2019-03-12T04:06:04.798Z,15.30
2019-03-12T04:06:40.294Z,15.70
2019-03-12T04:07:15.512Z,15.80
2019-03-12T04:07:50.991Z,16.60
2019-03-12T04:08:26.412Z,15.70
2019-03-12T04:09:01.803Z,15.80
2019-03-12T04:09:37.230Z,15.70
2019-03-12T04:10:12.450Z,15.20
2019-03-12T04:10:47.930Z,15.00
2019-03-12T04:11:23.326Z,14.70
2019-03-12T04:11:58.837Z,15.60
2019-03-12T04:12:34.262Z,15.50
2019-03-12T04:13:09.511Z,14.80
2019-03-12T04:13:45.165Z,15.70
2019-03-12T04:14:20.495Z,16.50
2019-03-12T04:14:55.978Z,16.60
2019-03-12T04:15:31.196Z,15.60
2019-03-12T04:16:06.391Z,15.30
2019-03-12T04:16:41.939Z,16.00
2019-03-12T04:17:17.344Z,16.40
2019-03-12T04:17:52.658Z,15.40
2019-03-12T04:18:27.970Z,16.40
2019-03-12T04:19:03.278Z,17.40
2019-03-12T04:19:38.787Z,16.30
2019-03-12T04:20:14.076Z,16.80
2019-03-12T04:20:49.338Z,16.90
2019-03-12T04:21:24.508Z,16.20
2019-03-12T04:21:59.738Z,17.00
2019-03-12T04:22:35.273Z,16.70
2019-03-12T04:23:10.649Z,17.20
2019-03-12T04:23:46.220Z,16.60
2019-03-12T04:24:21.467Z,15.60
2019-03-12T04:24:57.212Z,17.50
2019-03-12T04:25:32.826Z,18.70
2019-03-12T04:26:08.131Z,16.10
2019-03-12T04:26:43.684Z,16.00
2019-03-12T04:27:19.131Z,17.10
2019-03-12T04:27:54.548Z,16.40
2019-03-12T04:28:29.847Z,16.70
2019-03-12T04:29:05.163Z,16.80
2019-03-12T04:29:40.548Z,17.60
2019-03-12T04:30:15.959Z,17.50
2019-03-12T04:30:51.448Z,16.00
2019-03-12T04:31:26.663Z,16.10
2019-03-12T04:32:02.031Z,16.10
2019-03-12T04:32:37.215Z,15.10
2019-03-12T04:33:12.737Z,15.80
2019-03-12T04:33:48.019Z,16.20
2019-03-12T04:34:23.340Z,15.40
2019-03-12T04:34:58.654Z,16.50
2019-03-12T04:35:33.773Z,15.60
2019-03-12T04:36:09.198Z,16.00
2019-03-12T04:36:44.697Z,15.80
2019-03-12T04:37:20.245Z,15.80
2019-03-12T04:37:55.930Z,15.20
2019-03-12T04:38:31.354Z,15.10
2019-03-12T04:39:06.684Z,13.80
2019-03-12T04:39:42.091Z,14.70
2019-03-12T04:40:17.712Z,15.90
2019-03-12T04:40:52.995Z,16.10
2019-03-12T04:41:28.391Z,15.60
2019-03-12T04:42:03.893Z,15.20
2019-03-12T04:42:39.147Z,15.10
2019-03-12T04:43:14.475Z,14.80
2019-03-12T04:43:49.862Z,15.50
2019-03-12T04:44:25.386Z,15.80
2019-03-12T04:45:00.993Z,16.00
2019-03-12T04:45:36.015Z,15.20
2019-03-12T04:46:11.707Z,14.00
2019-03-12T04:46:46.935Z,13.90
2019-03-12T04:47:22.349Z,13.50
2019-03-12T04:47:57.856Z,15.10
2019-03-12T04:48:33.458Z,16.50
2019-03-12T04:49:08.942Z,15.50
2019-03-12T04:49:44.663Z,15.40
2019-03-12T04:50:20.253Z,16.20
2019-03-12T04:50:55.663Z,17.10
2019-03-12T04:51:31.249Z,15.50
2019-03-12T04:52:06.878Z,16.10
2019-03-12T04:52:42.625Z,16.60
2019-03-12T04:53:17.808Z,15.10
2019-03-12T04:53:53.225Z,15.60
2019-03-12T04:54:28.599Z,16.30
2019-03-12T04:55:03.819Z,15.80
2019-03-12T04:55:39.125Z,15.60
2019-03-12T04:56:14.529Z,14.70
2019-03-12T04:56:49.765Z,15.10
2019-03-12T04:57:24.945Z,15.20
2019-03-12T04:58:00.531Z,14.70
2019-03-12T04:58:35.718Z,13.40
2019-03-12T04:59:10.847Z,13.90
2019-03-12T04:59:46.091Z,13.10
2019-03-12T05:00:21.293Z,12.60
2019-03-12T05:00:57.039Z,13.10
2019-03-12T05:01:32.422Z,14.00
2019-03-12T05:02:07.988Z,13.00
2019-03-12T05:02:43.381Z,13.30
2019-03-12T05:03:18.935Z,12.40
2019-03-12T05:03:54.055Z,12.30
2019-03-12T05:04:29.339Z,14.00
2019-03-12T05:05:04.958Z,12.60
2019-03-12T05:05:40.263Z,12.90
2019-03-12T05:06:15.889Z,12.40
2019-03-12T05:06:51.108Z,13.40
2019-03-12T05:07:26.590Z,12.60
2019-03-12T05:08:01.937Z,13.70
2019-03-12T05:08:37.220Z,13.10
2019-03-12T05:09:12.551Z,12.30
2019-03-12T05:09:47.962Z,12.40
2019-03-12T05:10:23.270Z,12.00
2019-03-12T05:10:58.587Z,11.90
2019-03-12T05:11:34.284Z,12.40
2019-03-12T05:12:09.802Z,12.70
2019-03-12T05:12:45.529Z,11.20
2019-03-12T05:13:20.770Z,12.50
2019-03-12T05:13:55.877Z,12.70
2019-03-12T05:14:31.369Z,11.90
2019-03-12T05:15:06.474Z,11.80
2019-03-12T05:15:41.697Z,12.40
2019-03-12T05:16:17.012Z,13.00
2019-03-12T05:16:52.600Z,13.30
2019-03-12T05:17:28.036Z,13.10
2019-03-12T05:18:03.060Z,11.80
2019-03-12T05:18:38.470Z,11.50
2019-03-12T05:19:13.893Z,12.40
2019-03-12T05:19:49.479Z,12.70
2019-03-12T05:20:25.009Z,12.10
2019-03-12T05:21:00.420Z,12.50
2019-03-12T05:21:36.430Z,13.50
2019-03-12T05:22:11.773Z,13.90
2019-03-12T05:22:47.054Z,13.50
2019-03-12T05:23:22.396Z,12.70
2019-03-12T05:23:57.878Z,14.30
2019-03-12T05:24:33.300Z,13.50
2019-03-12T05:25:08.890Z,12.80
2019-03-12T05:25:44.527Z,12.90
2019-03-12T05:26:19.824Z,13.90
2019-03-12T05:26:55.433Z,13.30
2019-03-12T05:27:30.948Z,12.70
2019-03-12T05:28:06.590Z,14.00
2019-03-12T05:28:41.909Z,13.80
2019-03-12T05:29:17.497Z,13.00
2019-03-12T05:29:52.827Z,12.10
2019-03-12T05:30:28.211Z,12.20
2019-03-12T05:31:03.638Z,13.60
2019-03-12T05:31:38.968Z,14.00
2019-03-12T05:32:14.192Z,12.50
2019-03-12T05:32:49.788Z,12.40
2019-03-12T05:33:24.912Z,12.30
2019-03-12T05:34:00.232Z,13.10
2019-03-12T05:34:35.324Z,13.90
2019-03-12T05:35:10.651Z,12.90
2019-03-12T05:35:45.949Z,12.50
2019-03-12T05:36:21.275Z,12.20
2019-03-12T05:36:56.551Z,10.60
2019-03-12T05:37:32.283Z,11.20
2019-03-12T05:38:07.671Z,11.70
2019-03-12T05:38:43.215Z,10.70
2019-03-12T05:39:18.600Z,11.70
2019-03-12T05:39:54.017Z,12.30
2019-03-12T05:40:29.605Z,12.10
2019-03-12T05:41:04.621Z,12.10
2019-03-12T05:41:39.917Z,12.00
2019-03-12T05:42:15.334Z,11.30
2019-03-12T05:42:50.619Z,11.50
2019-03-12T05:43:26.054Z,11.50
2019-03-12T05:44:01.573Z,11.90
2019-03-12T05:44:36.827Z,11.30
2019-03-12T05:45:12.198Z,10.70
2019-03-12T05:45:47.515Z,10.30
2019-03-12T05:46:22.709Z,11.00
2019-03-12T05:46:58.113Z,11.60
2019-03-12T05:47:33.682Z,11.90
2019-03-12T05:48:09.108Z,11.90
2019-03-12T05:48:44.441Z,11.30
2019-03-12T05:49:19.880Z,11.00
2019-03-12T05:49:55.170Z,11.20
2019-03-12T05:50:30.280Z,10.80
2019-03-12T05:51:05.980Z,11.80
2019-03-12T05:51:41.515Z,11.50
2019-03-12T05:52:16.727Z,10.50
2019-03-12T05:52:51.864Z,10.30
2019-03-12T05:53:27.165Z,10.70
2019-03-12T05:54:02.502Z,10.60
2019-03-12T05:54:37.900Z,9.70
2019-03-12T05:55:13.142Z,9.60
2019-03-12T05:55:48.545Z,10.20
2019-03-12T05:56:23.876Z,10.50
2019-03-12T05:56:59.164Z,9.80
2019-03-12T05:57:34.499Z,10.40
2019-03-12T05:58:09.988Z,10.20
2019-03-12T05:58:45.329Z,9.80
2019-03-12T05:59:20.735Z,10.30
2019-03-12T05:59:56.392Z,10.10
2019-03-12T06:00:31.864Z,8.80
2019-03-12T06:01:07.123Z,8.90
2019-03-12T06:01:42.324Z,9.20
2019-03-12T06:02:17.749Z,9.40
2019-03-12T06:02:53.036Z,8.90
2019-03-12T06:03:28.460Z,9.50
2019-03-12T06:04:03.889Z,9.60
2019-03-12T06:04:38.988Z,9.80
2019-03-12T06:05:14.286Z,9.90
2019-03-12T06:05:49.913Z,9.80
2019-03-12T06:06:25.200Z,11.20
2019-03-12T06:07:00.549Z,9.70
2019-03-12T06:07:36.260Z,9.60
2019-03-12T06:08:11.595Z,10.00
2019-03-12T06:08:47.150Z,10.50
2019-03-12T06:09:30.326Z,10.30
2019-03-12T06:09:58.066Z,10.10
2019-03-12T06:10:33.397Z,9.50
2019-03-12T06:11:08.694Z,9.20
2019-03-12T06:11:43.914Z,9.10
2019-03-12T06:12:19.256Z,8.30
2019-03-12T06:12:54.446Z,9.10
2019-03-12T06:13:29.835Z,9.80
2019-03-12T06:14:05.202Z,9.90
2019-03-12T06:14:40.581Z,9.50
2019-03-12T06:15:15.825Z,9.60
2019-03-12T06:15:53.126Z,9.40
2019-03-12T06:16:26.139Z,9.60
2019-03-12T06:17:01.330Z,9.10
2019-03-12T06:17:36.841Z,8.90
2019-03-12T06:18:12.223Z,8.90
2019-03-12T06:18:47.680Z,8.60
2019-03-12T06:19:23.172Z,8.60
2019-03-12T06:19:58.291Z,8.20
2019-03-12T06:20:33.588Z,9.30
2019-03-12T06:21:08.812Z,9.80
2019-03-12T06:21:44.327Z,9.90
2019-03-12T06:22:19.743Z,9.80
2019-03-12T06:22:55.149Z,10.60
2019-03-12T06:23:30.500Z,10.70
2019-03-12T06:24:05.819Z,9.60
2019-03-12T06:24:41.040Z,9.50
2019-03-12T06:25:16.223Z,10.70
2019-03-12T06:25:51.560Z,10.40
2019-03-12T06:26:26.952Z,9.60
2019-03-12T06:27:02.494Z,9.30
2019-03-12T06:27:38.296Z,10.30
2019-03-12T06:28:13.424Z,10.80
2019-03-12T06:28:48.649Z,9.70
2019-03-12T06:29:24.074Z,9.90
2019-03-12T06:29:59.458Z,9.60
2019-03-12T06:30:35.296Z,9.60
2019-03-12T06:31:10.587Z,9.60
2019-03-12T06:31:46.207Z,8.70
2019-03-12T06:32:21.703Z,8.60
2019-03-12T06:32:57.311Z,9.40
2019-03-12T06:33:32.449Z,9.60
2019-03-12T06:34:07.816Z,9.30
2019-03-12T06:34:43.330Z,9.20
2019-03-12T06:35:18.821Z,9.10
2019-03-12T06:35:54.654Z,10.30
2019-03-12T06:36:29.884Z,9.80
2019-03-12T06:37:05.274Z,9.90
2019-03-12T06:37:40.544Z,9.70
2019-03-12T06:38:15.827Z,10.10
2019-03-12T06:38:51.085Z,9.50
2019-03-12T06:39:26.673Z,9.40
2019-03-12T06:40:01.686Z,9.90
2019-03-12T06:40:37.080Z,8.90
2019-03-12T06:41:12.712Z,8.80
2019-03-12T06:41:48.111Z,10.00
2019-03-12T06:42:23.241Z,10.40
2019-03-12T06:42:58.434Z,9.20
2019-03-12T06:43:33.762Z,8.80
2019-03-12T06:44:09.074Z,8.30
2019-03-12T06:44:44.917Z,8.00
2019-03-12T06:45:20.099Z,8.00
2019-03-12T06:45:55.431Z,8.20
2019-03-12T06:46:30.941Z,8.50
2019-03-12T06:47:06.375Z,8.40
2019-03-12T06:47:41.779Z,8.30
2019-03-12T06:48:17.510Z,8.70
2019-03-12T06:48:53.015Z,8.80
2019-03-12T06:49:28.433Z,8.30
2019-03-12T06:50:03.734Z,9.10
2019-03-12T06:50:39.158Z,9.60
2019-03-12T06:51:14.840Z,8.90
2019-03-12T06:51:50.174Z,8.30
2019-03-12T06:52:25.467Z,9.00
2019-03-12T06:53:00.892Z,9.20
2019-03-12T06:53:36.279Z,9.10
2019-03-12T06:54:11.638Z,8.60
2019-03-12T06:54:47.018Z,8.30
2019-03-12T06:55:22.345Z,8.40
2019-03-12T06:55:57.541Z,7.70
2019-03-12T06:56:33.082Z,8.10
2019-03-12T06:57:08.763Z,7.90
2019-03-12T06:57:44.286Z,8.40
2019-03-12T06:58:19.692Z,8.40
2019-03-12T06:58:55.478Z,9.10
2019-03-12T06:59:30.740Z,8.60
2019-03-12T07:00:06.160Z,8.10
2019-03-12T07:00:41.656Z,8.20
2019-03-12T07:01:17.173Z,8.00
2019-03-12T07:01:52.541Z,7.60
2019-03-12T07:02:27.591Z,7.40
2019-03-12T07:03:02.788Z,8.10
2019-03-12T07:03:38.165Z,8.80
2019-03-12T07:04:13.505Z,8.20
2019-03-12T07:04:49.246Z,8.30
2019-03-12T07:05:24.732Z,8.50
2019-03-12T07:05:59.860Z,8.00
2019-03-12T07:06:35.148Z,7.60
2019-03-12T07:07:11.555Z,7.70
2019-03-12T07:07:46.812Z,7.40
2019-03-12T07:08:20.907Z,7.30
2019-03-12T07:08:56.223Z,8.00
2019-03-12T07:09:31.555Z,7.40
2019-03-12T07:10:06.886Z,6.60
2019-03-12T07:10:42.379Z,6.70
2019-03-12T07:11:17.681Z,6.50
2019-03-12T07:11:53.425Z,6.50
2019-03-12T07:12:28.930Z,6.30
2019-03-12T07:13:04.269Z,5.90
2019-03-12T07:13:39.464Z,6.30
2019-03-12T07:14:15.013Z,6.50
2019-03-12T07:14:51.121Z,6.60
2019-03-12T07:15:26.655Z,6.50
2019-03-12T07:16:01.968Z,6.60
2019-03-12T07:16:37.499Z,6.40
2019-03-12T07:17:12.598Z,6.20
2019-03-12T07:17:47.926Z,6.00
2019-03-12T07:18:23.341Z,5.70
2019-03-12T07:18:58.696Z,5.80
2019-03-12T07:19:34.393Z,5.70
2019-03-12T07:20:13.013Z,6.10
2019-03-12T07:20:45.131Z,6.10
2019-03-12T07:21:20.363Z,5.30
2019-03-12T07:21:55.758Z,6.00
2019-03-12T07:22:31.103Z,6.80
2019-03-12T07:23:06.414Z,6.50
2019-03-12T07:23:41.935Z,6.30
2019-03-12T07:24:17.436Z,6.30
2019-03-12T07:24:52.863Z,6.40
2019-03-12T07:25:28.069Z,7.00
2019-03-12T07:26:03.327Z,6.50
2019-03-12T07:26:38.454Z,6.30
2019-03-12T07:27:13.927Z,6.90
2019-03-12T07:27:49.332Z,6.60
2019-03-12T07:28:24.486Z,6.40
2019-03-12T07:29:00.012Z,6.40
2019-03-12T07:29:35.277Z,6.30
2019-03-12T07:30:12.914Z,6.40
2019-03-12T07:30:46.238Z,6.90
2019-03-12T07:31:21.955Z,6.10
2019-03-12T07:31:57.423Z,6.20
2019-03-12T07:32:33.285Z,6.00
2019-03-12T07:33:08.745Z,6.00
2019-03-12T07:33:44.326Z,6.10
2019-03-12T07:34:19.810Z,5.50
2019-03-12T07:34:55.025Z,5.70
2019-03-12T07:35:30.473Z,6.10
2019-03-12T07:36:06.035Z,6.60
2019-03-12T07:36:41.713Z,7.10
2019-03-12T07:37:17.416Z,6.20
2019-03-12T07:37:53.055Z,6.20
2019-03-12T07:38:28.737Z,6.60
2019-03-12T07:39:04.126Z,6.20
2019-03-12T07:39:39.658Z,5.50
2019-03-12T07:40:15.217Z,5.60
2019-03-12T07:40:50.905Z,6.50
2019-03-12T07:41:32.395Z,6.30
2019-03-12T07:42:02.221Z,6.10
2019-03-12T07:42:37.650Z,5.80
2019-03-12T07:43:12.839Z,6.00
2019-03-12T07:43:48.490Z,6.00
2019-03-12T07:44:23.883Z,6.70
2019-03-12T07:44:59.522Z,6.80